Home   Weather   Germany   Mülheim / Ruhr   Past weeks
Flag for Germany

Past Weather in Mülheim / Ruhr, North Rhine-Westphalia, Germany — Yesterday and Last 2 Weeks

Currently: 25 °F. Clear. (Weather station: Duesseldorf, Germany). See more current weather

Past Weather in Mülheim / Ruhr — Graph

°F

Mülheim / Ruhr Temperature Yesterday

Maximum temperature yesterday: 45 °F (at 1:20 pm)
Minimum temperature yesterday: 23 °F (at 4:20 am)
Average temperature yesterday: 33 °F

High & Low Weather Summary for the Past Weeks

 TemperatureHumidityPressure
High68 °F (Feb 24, 2:20 pm)100% (Feb 27, 1:20 am)30.74 "Hg (Feb 27, 1:20 am)
Low23 °F (Mar 6, 4:20 am)34% (Mar 5, 5:20 pm)29.89 "Hg (Feb 20, 2:50 pm)
Average48 °F70%30.34 "Hg
* Reported Feb 20 2:20 am — Mar 7 2:20 am, Mülheim / Ruhr. Weather by CustomWeather, © 2021

Note: Actual official high and low records may vary slightly from our data, if they occured in-between our weather recording intervals... More about our weather records

Mülheim / Ruhr Weather History for the Previous 24 Hours

Scroll right to see more
 ConditionsComfort  
Time TempWeatherWind HumidityBarometerVisibility
2:20 am
Sun, Mar 7
27 °FClear.2 mph86%30.36 "Hg10 mi
1:50 am27 °FClear.1 mph93%30.36 "Hg10 mi
1:20 am27 °FClear.2 mph93%30.36 "Hg10 mi
12:50 am28 °FClear.2 mph86%30.36 "Hg10 mi
12:20 am27 °FClear.2 mph93%30.39 "Hg10 mi
11:50 pm
Sat, Mar 6
27 °FClear.1 mph93%30.39 "Hg10 mi
11:20 pm28 °FClear.3 mph93%30.39 "Hg10 mi
10:50 pm28 °FClear.2 mph86%30.39 "Hg10 mi
10:20 pm30 °FClear.2 mph86%30.39 "Hg10 mi
9:50 pm30 °FClear.5 mph80%30.42 "Hg10 mi
9:20 pm30 °FClear.5 mph75%30.42 "Hg10 mi
8:50 pm30 °FClear.3 mph80%30.42 "Hg10 mi
8:20 pm32 °FClear.2 mph75%30.42 "Hg10 mi
7:50 pm34 °FClear.2 mph70%30.42 "Hg10 mi
7:20 pm36 °FClear.2 mph65%30.45 "Hg10 mi
6:50 pm39 °FClear.3 mph52%30.45 "Hg10 mi
6:20 pm41 °FSunny.5 mph53%30.45 "Hg10 mi
5:50 pm43 °FSunny.6 mph46%30.45 "Hg10 mi
5:20 pm45 °FPassing clouds.6 mph46%30.45 "HgN/A
4:50 pm45 °FPassing clouds.7 mph46%30.45 "HgN/A
4:20 pm45 °FPassing clouds.9 mph46%30.45 "HgN/A
3:50 pm45 °FPassing clouds.5 mph46%30.45 "HgN/A
3:20 pm45 °FPassing clouds.6 mph46%30.48 "HgN/A
2:50 pm45 °FPassing clouds.6 mph49%30.48 "HgN/A
2:20 pm43 °FPassing clouds.6 mph49%30.48 "HgN/A
1:50 pm45 °FPassing clouds.7 mph46%30.51 "HgN/A
1:20 pm45 °FPassing clouds.8 mph46%30.51 "HgN/A
12:50 pm43 °FPassing clouds.8 mph49%30.51 "HgN/A
12:20 pm43 °FPassing clouds.9 mph49%30.54 "HgN/A
11:50 am43 °FPassing clouds.9 mph46%30.54 "HgN/A
11:20 am43 °FPassing clouds.6 mph46%30.54 "HgN/A
10:50 am39 °FPassing clouds.5 mph56%30.54 "HgN/A
10:20 am37 °FSunny.5 mph60%30.54 "Hg10 mi
9:50 am36 °FSunny.3 mph70%30.54 "Hg10 mi
9:20 am34 °FSunny.1 mph75%30.54 "Hg10 mi
8:50 am32 °FSunny.1 mph80%30.54 "Hg10 mi
8:20 am28 °FSunny.1 mph86%30.54 "Hg10 mi
7:50 am25 °FSunny.2 mph86%30.54 "Hg10 mi
7:20 am23 °FSunny.2 mph93%30.54 "Hg10 mi
6:50 am23 °FClear.2 mph93%30.51 "Hg10 mi
6:20 am23 °FClear.2 mph93%30.51 "Hg10 mi
5:50 am23 °FClear.2 mph93%30.51 "Hg10 mi
5:20 am23 °FClear.1 mph93%30.51 "Hg10 mi
4:50 am23 °FClear.1 mph93%30.51 "Hg10 mi
4:20 am23 °FClear.3 mph86%30.51 "Hg10 mi
3:50 am25 °FClear.2 mph93%30.51 "Hg10 mi
3:20 am25 °FClear.3 mph93%30.51 "Hg10 mi
Weather by CustomWeather, © 2021

See weather overview